sensor_id;sensor_type;location;lat;lon;timestamp;P1;durP1;ratioP1;P2;durP2;ratioP2
78820;SDS011;68171;13.882;99.692;2023-06-22T00:01:03;12.00;;;4.43;;
78820;SDS011;68171;13.882;99.692;2023-06-22T00:02:10;10.13;;;4.38;;
78820;SDS011;68171;13.882;99.692;2023-06-22T00:03:15;10.07;;;4.45;;
78820;SDS011;68171;13.882;99.692;2023-06-22T00:04:22;10.77;;;4.13;;
78820;SDS011;68171;13.882;99.692;2023-06-22T00:05:26;9.43;;;4.40;;
78820;SDS011;68171;13.882;99.692;2023-06-22T00:06:33;9.13;;;4.80;;
78820;SDS011;68171;13.882;99.692;2023-06-22T00:07:38;12.13;;;4.72;;
78820;SDS011;68171;13.882;99.692;2023-06-22T00:08:44;10.55;;;4.65;;
78820;SDS011;68171;13.882;99.692;2023-06-22T00:09:48;10.18;;;4.40;;
78820;SDS011;68171;13.882;99.692;2023-06-22T00:10:54;8.82;;;4.13;;
78820;SDS011;68171;13.882;99.692;2023-06-22T00:11:59;12.10;;;4.47;;
78820;SDS011;68171;13.882;99.692;2023-06-22T00:13:06;10.68;;;4.93;;
78820;SDS011;68171;13.882;99.692;2023-06-22T00:14:13;10.95;;;4.85;;
78820;SDS011;68171;13.882;99.692;2023-06-22T00:15:19;11.85;;;4.40;;
78820;SDS011;68171;13.882;99.692;2023-06-22T00:16:24;10.80;;;4.20;;
78820;SDS011;68171;13.882;99.692;2023-06-22T00:17:31;12.60;;;4.40;;
78820;SDS011;68171;13.882;99.692;2023-06-22T00:18:35;10.07;;;3.95;;
78820;SDS011;68171;13.882;99.692;2023-06-22T00:19:41;12.32;;;4.40;;
78820;SDS011;68171;13.882;99.692;2023-06-22T00:20:46;11.75;;;3.90;;
78820;SDS011;68171;13.882;99.692;2023-06-22T00:21:52;9.48;;;4.28;;
78820;SDS011;68171;13.882;99.692;2023-06-22T00:22:57;8.63;;;3.80;;
78820;SDS011;68171;13.882;99.692;2023-06-22T00:24:05;9.73;;;3.75;;
78820;SDS011;68171;13.882;99.692;2023-06-22T00:25:10;10.30;;;4.20;;
78820;SDS011;68171;13.882;99.692;2023-06-22T00:26:16;11.65;;;3.65;;
78820;SDS011;68171;13.882;99.692;2023-06-22T00:27:22;7.53;;;3.63;;
78820;SDS011;68171;13.882;99.692;2023-06-22T00:28:28;10.60;;;3.50;;
78820;SDS011;68171;13.882;99.692;2023-06-22T00:29:35;8.80;;;3.38;;
78820;SDS011;68171;13.882;99.692;2023-06-22T00:30:41;11.23;;;4.00;;
78820;SDS011;68171;13.882;99.692;2023-06-22T00:31:46;10.30;;;3.83;;
78820;SDS011;68171;13.882;99.692;2023-06-22T00:32:52;7.80;;;3.90;;
78820;SDS011;68171;13.882;99.692;2023-06-22T00:33:57;8.48;;;3.60;;
78820;SDS011;68171;13.882;99.692;2023-06-22T00:35:04;9.60;;;3.83;;
78820;SDS011;68171;13.882;99.692;2023-06-22T00:36:09;7.78;;;3.40;;
78820;SDS011;68171;13.882;99.692;2023-06-22T00:37:16;8.02;;;3.40;;
78820;SDS011;68171;13.882;99.692;2023-06-22T00:38:21;9.38;;;3.40;;
78820;SDS011;68171;13.882;99.692;2023-06-22T00:39:27;11.77;;;3.40;;
78820;SDS011;68171;13.882;99.692;2023-06-22T00:40:33;9.70;;;3.50;;
78820;SDS011;68171;13.882;99.692;2023-06-22T00:41:40;10.85;;;3.53;;
78820;SDS011;68171;13.882;99.692;2023-06-22T00:42:44;9.05;;;3.17;;
78820;SDS011;68171;13.882;99.692;2023-06-22T00:43:51;8.48;;;3.30;;
78820;SDS011;68171;13.882;99.692;2023-06-22T00:44:59;11.43;;;3.80;;
78820;SDS011;68171;13.882;99.692;2023-06-22T00:46:04;9.60;;;3.55;;
78820;SDS011;68171;13.882;99.692;2023-06-22T00:47:10;7.13;;;3.05;;
78820;SDS011;68171;13.882;99.692;2023-06-22T00:48:16;11.98;;;4.15;;
78820;SDS011;68171;13.882;99.692;2023-06-22T00:49:23;11.50;;;4.13;;
78820;SDS011;68171;13.882;99.692;2023-06-22T00:50:28;8.90;;;4.07;;
78820;SDS011;68171;13.882;99.692;2023-06-22T00:51:37;9.65;;;3.80;;
78820;SDS011;68171;13.882;99.692;2023-06-22T00:52:48;10.57;;;4.30;;
78820;SDS011;68171;13.882;99.692;2023-06-22T00:53:57;11.07;;;4.75;;
78820;SDS011;68171;13.882;99.692;2023-06-22T00:55:02;11.77;;;4.60;;
78820;SDS011;68171;13.882;99.692;2023-06-22T00:56:10;10.82;;;4.53;;
78820;SDS011;68171;13.882;99.692;2023-06-22T00:57:16;10.73;;;3.85;;
78820;SDS011;68171;13.882;99.692;2023-06-22T00:58:22;14.43;;;4.18;;
78820;SDS011;68171;13.882;99.692;2023-06-22T00:59:28;8.63;;;4.05;;
78820;SDS011;68171;13.882;99.692;2023-06-22T01:00:37;9.52;;;4.20;;
78820;SDS011;68171;13.882;99.692;2023-06-22T01:01:42;10.37;;;3.83;;
78820;SDS011;68171;13.882;99.692;2023-06-22T01:02:48;7.85;;;3.83;;
78820;SDS011;68171;13.882;99.692;2023-06-22T01:03:55;8.85;;;3.53;;
78820;SDS011;68171;13.882;99.692;2023-06-22T01:05:01;8.43;;;3.83;;
78820;SDS011;68171;13.882;99.692;2023-06-22T01:06:07;11.38;;;4.25;;
78820;SDS011;68171;13.882;99.692;2023-06-22T01:07:20;10.57;;;3.75;;
78820;SDS011;68171;13.882;99.692;2023-06-22T01:08:29;11.77;;;3.90;;
78820;SDS011;68171;13.882;99.692;2023-06-22T01:09:42;10.27;;;4.22;;
78820;SDS011;68171;13.882;99.692;2023-06-22T01:10:51;10.95;;;4.30;;
78820;SDS011;68171;13.882;99.692;2023-06-22T01:12:00;9.00;;;4.05;;
78820;SDS011;68171;13.882;99.692;2023-06-22T01:13:06;12.47;;;4.20;;
78820;SDS011;68171;13.882;99.692;2023-06-22T01:14:18;9.13;;;3.45;;
78820;SDS011;68171;13.882;99.692;2023-06-22T01:15:28;12.45;;;3.83;;
78820;SDS011;68171;13.882;99.692;2023-06-22T01:16:39;10.05;;;3.70;;
78820;SDS011;68171;13.882;99.692;2023-06-22T01:17:46;9.07;;;3.80;;
78820;SDS011;68171;13.882;99.692;2023-06-22T01:18:57;13.82;;;4.45;;
78820;SDS011;68171;13.882;99.692;2023-06-22T01:20:07;10.85;;;4.13;;
78820;SDS011;68171;13.882;99.692;2023-06-22T01:21:16;11.32;;;4.60;;
78820;SDS011;68171;13.882;99.692;2023-06-22T01:22:24;10.82;;;4.43;;
78820;SDS011;68171;13.882;99.692;2023-06-22T01:23:33;13.68;;;4.63;;
78820;SDS011;68171;13.882;99.692;2023-06-22T01:24:51;12.87;;;4.30;;
78820;SDS011;68171;13.882;99.692;2023-06-22T01:26:05;10.82;;;3.83;;
78820;SDS011;68171;13.882;99.692;2023-06-22T01:27:17;9.52;;;4.00;;
78820;SDS011;68171;13.882;99.692;2023-06-22T01:28:36;8.95;;;4.10;;
78820;SDS011;68171;13.882;99.692;2023-06-22T01:29:49;10.48;;;4.57;;
78820;SDS011;68171;13.882;99.692;2023-06-22T01:30:55;11.98;;;4.20;;
78820;SDS011;68171;13.882;99.692;2023-06-22T01:32:08;12.93;;;5.50;;
78820;SDS011;68171;13.882;99.692;2023-06-22T01:33:15;13.85;;;5.43;;
78820;SDS011;68171;13.882;99.692;2023-06-22T01:34:23;11.75;;;3.80;;
78820;SDS011;68171;13.882;99.692;2023-06-22T01:35:29;10.55;;;3.47;;
78820;SDS011;68171;13.882;99.692;2023-06-22T01:36:36;11.17;;;3.30;;
78820;SDS011;68171;13.882;99.692;2023-06-22T01:37:41;9.65;;;3.55;;
78820;SDS011;68171;13.882;99.692;2023-06-22T01:38:47;7.85;;;3.35;;
78820;SDS011;68171;13.882;99.692;2023-06-22T01:39:52;6.82;;;3.03;;
78820;SDS011;68171;13.882;99.692;2023-06-22T01:40:59;7.70;;;2.92;;
78820;SDS011;68171;13.882;99.692;2023-06-22T01:42:05;9.48;;;3.08;;
78820;SDS011;68171;13.882;99.692;2023-06-22T01:43:11;9.90;;;3.13;;
78820;SDS011;68171;13.882;99.692;2023-06-22T01:44:18;9.43;;;3.33;;
78820;SDS011;68171;13.882;99.692;2023-06-22T01:45:24;8.57;;;2.78;;
78820;SDS011;68171;13.882;99.692;2023-06-22T01:46:30;6.68;;;2.78;;
78820;SDS011;68171;13.882;99.692;2023-06-22T01:47:37;10.67;;;3.20;;
78820;SDS011;68171;13.882;99.692;2023-06-22T01:48:42;9.82;;;3.10;;
78820;SDS011;68171;13.882;99.692;2023-06-22T01:49:49;7.18;;;3.13;;
78820;SDS011;68171;13.882;99.692;2023-06-22T01:50:55;8.25;;;3.10;;
78820;SDS011;68171;13.882;99.692;2023-06-22T01:52:01;8.85;;;3.20;;
78820;SDS011;68171;13.882;99.692;2023-06-22T01:53:06;9.90;;;3.83;;
78820;SDS011;68171;13.882;99.692;2023-06-22T01:54:12;8.00;;;2.55;;
78820;SDS011;68171;13.882;99.692;2023-06-22T01:55:17;9.40;;;3.20;;
78820;SDS011;68171;13.882;99.692;2023-06-22T01:56:24;10.00;;;2.95;;
78820;SDS011;68171;13.882;99.692;2023-06-22T01:57:31;8.65;;;3.20;;
78820;SDS011;68171;13.882;99.692;2023-06-22T01:58:40;8.50;;;3.13;;
78820;SDS011;68171;13.882;99.692;2023-06-22T01:59:51;8.73;;;3.42;;
78820;SDS011;68171;13.882;99.692;2023-06-22T02:01:03;10.32;;;3.00;;
78820;SDS011;68171;13.882;99.692;2023-06-22T02:02:14;8.82;;;3.53;;
78820;SDS011;68171;13.882;99.692;2023-06-22T02:03:23;7.28;;;3.30;;
78820;SDS011;68171;13.882;99.692;2023-06-22T02:04:33;10.88;;;3.55;;
78820;SDS011;68171;13.882;99.692;2023-06-22T02:05:43;7.50;;;3.50;;
78820;SDS011;68171;13.882;99.692;2023-06-22T02:06:53;12.02;;;4.00;;
78820;SDS011;68171;13.882;99.692;2023-06-22T02:08:03;9.75;;;3.97;;
78820;SDS011;68171;13.882;99.692;2023-06-22T02:09:14;7.50;;;3.30;;
78820;SDS011;68171;13.882;99.692;2023-06-22T02:10:20;8.03;;;3.07;;
78820;SDS011;68171;13.882;99.692;2023-06-22T02:11:28;11.70;;;3.38;;
78820;SDS011;68171;13.882;99.692;2023-06-22T02:12:33;6.68;;;3.20;;
78820;SDS011;68171;13.882;99.692;2023-06-22T02:13:41;12.25;;;3.58;;
78820;SDS011;68171;13.882;99.692;2023-06-22T02:14:47;12.57;;;4.50;;
78820;SDS011;68171;13.882;99.692;2023-06-22T02:15:56;9.07;;;3.90;;
78820;SDS011;68171;13.882;99.692;2023-06-22T02:17:02;9.52;;;3.60;;
78820;SDS011;68171;13.882;99.692;2023-06-22T02:18:10;8.52;;;3.70;;
78820;SDS011;68171;13.882;99.692;2023-06-22T02:19:15;9.20;;;3.25;;
78820;SDS011;68171;13.882;99.692;2023-06-22T02:20:21;9.75;;;3.63;;
78820;SDS011;68171;13.882;99.692;2023-06-22T02:21:29;7.30;;;3.20;;
78820;SDS011;68171;13.882;99.692;2023-06-22T02:22:35;8.60;;;3.30;;
78820;SDS011;68171;13.882;99.692;2023-06-22T02:23:40;8.50;;;3.47;;
78820;SDS011;68171;13.882;99.692;2023-06-22T02:24:46;8.88;;;3.20;;
78820;SDS011;68171;13.882;99.692;2023-06-22T02:25:51;7.43;;;3.42;;
78820;SDS011;68171;13.882;99.692;2023-06-22T02:26:57;10.13;;;3.08;;
78820;SDS011;68171;13.882;99.692;2023-06-22T02:28:02;8.10;;;3.20;;
78820;SDS011;68171;13.882;99.692;2023-06-22T02:29:09;9.15;;;3.50;;
78820;SDS011;68171;13.882;99.692;2023-06-22T02:30:15;8.55;;;3.40;;
78820;SDS011;68171;13.882;99.692;2023-06-22T02:31:21;13.55;;;3.42;;
78820;SDS011;68171;13.882;99.692;2023-06-22T02:32:33;7.90;;;3.47;;
78820;SDS011;68171;13.882;99.692;2023-06-22T02:33:39;10.52;;;3.70;;
78820;SDS011;68171;13.882;99.692;2023-06-22T02:34:48;8.77;;;3.40;;
78820;SDS011;68171;13.882;99.692;2023-06-22T02:35:55;8.88;;;3.20;;
78820;SDS011;68171;13.882;99.692;2023-06-22T02:37:00;8.45;;;3.47;;
78820;SDS011;68171;13.882;99.692;2023-06-22T02:38:06;9.80;;;3.63;;
78820;SDS011;68171;13.882;99.692;2023-06-22T02:39:11;10.15;;;3.85;;
78820;SDS011;68171;13.882;99.692;2023-06-22T02:40:17;9.25;;;4.05;;
78820;SDS011;68171;13.882;99.692;2023-06-22T02:41:22;8.82;;;3.42;;
78820;SDS011;68171;13.882;99.692;2023-06-22T02:42:28;12.93;;;3.85;;
78820;SDS011;68171;13.882;99.692;2023-06-22T02:43:33;9.27;;;3.17;;
78820;SDS011;68171;13.882;99.692;2023-06-22T02:44:39;8.40;;;3.25;;
78820;SDS011;68171;13.882;99.692;2023-06-22T02:45:46;9.85;;;2.95;;
78820;SDS011;68171;13.882;99.692;2023-06-22T02:46:52;7.10;;;2.80;;
78820;SDS011;68171;13.882;99.692;2023-06-22T02:47:57;7.97;;;3.30;;
78820;SDS011;68171;13.882;99.692;2023-06-22T02:49:03;8.85;;;3.13;;
78820;SDS011;68171;13.882;99.692;2023-06-22T02:50:08;11.15;;;3.25;;
78820;SDS011;68171;13.882;99.692;2023-06-22T02:51:15;10.23;;;3.00;;
78820;SDS011;68171;13.882;99.692;2023-06-22T02:52:20;13.30;;;3.30;;
78820;SDS011;68171;13.882;99.692;2023-06-22T02:53:26;10.70;;;3.25;;
78820;SDS011;68171;13.882;99.692;2023-06-22T02:54:32;13.07;;;3.50;;
78820;SDS011;68171;13.882;99.692;2023-06-22T02:55:37;8.77;;;3.03;;
78820;SDS011;68171;13.882;99.692;2023-06-22T02:56:43;7.95;;;3.00;;
78820;SDS011;68171;13.882;99.692;2023-06-22T02:57:49;11.25;;;3.25;;
78820;SDS011;68171;13.882;99.692;2023-06-22T02:58:55;9.50;;;3.35;;
78820;SDS011;68171;13.882;99.692;2023-06-22T03:00:05;13.43;;;4.45;;
78820;SDS011;68171;13.882;99.692;2023-06-22T03:01:21;8.13;;;3.42;;
78820;SDS011;68171;13.882;99.692;2023-06-22T03:02:27;19.30;;;10.10;;
78820;SDS011;68171;13.882;99.692;2023-06-22T03:03:32;14.30;;;6.38;;
78820;SDS011;68171;13.882;99.692;2023-06-22T03:04:39;9.02;;;4.38;;
78820;SDS011;68171;13.882;99.692;2023-06-22T03:05:44;8.83;;;3.83;;
78820;SDS011;68171;13.882;99.692;2023-06-22T03:06:50;8.70;;;4.35;;
78820;SDS011;68171;13.882;99.692;2023-06-22T03:07:57;11.68;;;4.40;;
78820;SDS011;68171;13.882;99.692;2023-06-22T03:09:02;12.20;;;4.30;;
78820;SDS011;68171;13.882;99.692;2023-06-22T03:10:09;10.90;;;3.47;;
78820;SDS011;68171;13.882;99.692;2023-06-22T03:11:14;8.82;;;3.97;;
78820;SDS011;68171;13.882;99.692;2023-06-22T03:12:20;8.23;;;3.80;;
78820;SDS011;68171;13.882;99.692;2023-06-22T03:13:25;7.93;;;3.13;;
78820;SDS011;68171;13.882;99.692;2023-06-22T03:14:31;10.82;;;3.55;;
78820;SDS011;68171;13.882;99.692;2023-06-22T03:15:37;8.20;;;3.28;;
78820;SDS011;68171;13.882;99.692;2023-06-22T03:16:45;9.90;;;3.67;;
78820;SDS011;68171;13.882;99.692;2023-06-22T03:17:50;8.88;;;3.40;;
78820;SDS011;68171;13.882;99.692;2023-06-22T03:18:56;6.53;;;3.13;;
78820;SDS011;68171;13.882;99.692;2023-06-22T03:20:01;15.23;;;3.80;;
78820;SDS011;68171;13.882;99.692;2023-06-22T03:21:12;15.15;;;4.05;;
78820;SDS011;68171;13.882;99.692;2023-06-22T03:22:18;9.80;;;4.15;;
78820;SDS011;68171;13.882;99.692;2023-06-22T03:23:24;14.38;;;3.63;;
78820;SDS011;68171;13.882;99.692;2023-06-22T03:24:29;8.27;;;3.15;;
78820;SDS011;68171;13.882;99.692;2023-06-22T03:25:36;6.80;;;3.28;;
78820;SDS011;68171;13.882;99.692;2023-06-22T03:26:41;8.68;;;2.97;;
78820;SDS011;68171;13.882;99.692;2023-06-22T03:27:49;10.63;;;3.40;;
78820;SDS011;68171;13.882;99.692;2023-06-22T03:28:54;8.60;;;3.22;;
78820;SDS011;68171;13.882;99.692;2023-06-22T03:30:00;8.98;;;2.75;;
78820;SDS011;68171;13.882;99.692;2023-06-22T03:31:06;8.25;;;2.95;;
78820;SDS011;68171;13.882;99.692;2023-06-22T03:32:14;7.55;;;2.92;;
78820;SDS011;68171;13.882;99.692;2023-06-22T03:33:19;8.90;;;3.45;;
78820;SDS011;68171;13.882;99.692;2023-06-22T03:34:26;7.07;;;2.70;;
78820;SDS011;68171;13.882;99.692;2023-06-22T03:35:31;12.43;;;2.80;;
78820;SDS011;68171;13.882;99.692;2023-06-22T03:36:37;9.18;;;2.92;;
78820;SDS011;68171;13.882;99.692;2023-06-22T03:37:43;9.23;;;3.00;;
78820;SDS011;68171;13.882;99.692;2023-06-22T03:38:50;8.23;;;2.80;;
78820;SDS011;68171;13.882;99.692;2023-06-22T03:39:55;8.68;;;3.00;;
78820;SDS011;68171;13.882;99.692;2023-06-22T03:41:01;8.98;;;2.70;;
78820;SDS011;68171;13.882;99.692;2023-06-22T03:42:06;8.35;;;3.00;;
78820;SDS011;68171;13.882;99.692;2023-06-22T03:43:13;7.38;;;2.92;;
78820;SDS011;68171;13.882;99.692;2023-06-22T03:44:18;10.23;;;3.22;;
78820;SDS011;68171;13.882;99.692;2023-06-22T03:45:24;11.93;;;3.40;;
78820;SDS011;68171;13.882;99.692;2023-06-22T03:46:29;9.55;;;3.35;;
78820;SDS011;68171;13.882;99.692;2023-06-22T03:47:37;8.10;;;2.95;;
78820;SDS011;68171;13.882;99.692;2023-06-22T03:48:44;10.68;;;2.65;;
78820;SDS011;68171;13.882;99.692;2023-06-22T03:49:49;6.90;;;2.90;;
78820;SDS011;68171;13.882;99.692;2023-06-22T03:50:58;9.60;;;2.97;;
78820;SDS011;68171;13.882;99.692;2023-06-22T03:52:03;7.72;;;3.10;;
78820;SDS011;68171;13.882;99.692;2023-06-22T03:53:10;7.45;;;2.97;;
78820;SDS011;68171;13.882;99.692;2023-06-22T03:54:16;7.75;;;2.75;;
78820;SDS011;68171;13.882;99.692;2023-06-22T03:55:22;8.85;;;2.83;;
78820;SDS011;68171;13.882;99.692;2023-06-22T03:56:28;9.05;;;2.80;;
78820;SDS011;68171;13.882;99.692;2023-06-22T03:57:34;7.07;;;2.40;;
78820;SDS011;68171;13.882;99.692;2023-06-22T03:58:40;8.88;;;2.85;;
78820;SDS011;68171;13.882;99.692;2023-06-22T03:59:48;8.93;;;2.40;;
78820;SDS011;68171;13.882;99.692;2023-06-22T04:00:54;8.07;;;2.20;;
78820;SDS011;68171;13.882;99.692;2023-06-22T04:01:59;8.93;;;2.70;;
78820;SDS011;68171;13.882;99.692;2023-06-22T04:03:07;10.50;;;2.80;;
78820;SDS011;68171;13.882;99.692;2023-06-22T04:04:12;8.05;;;2.92;;
78820;SDS011;68171;13.882;99.692;2023-06-22T04:05:19;6.40;;;2.30;;
78820;SDS011;68171;13.882;99.692;2023-06-22T04:06:24;10.32;;;2.75;;
78820;SDS011;68171;13.882;99.692;2023-06-22T04:07:30;8.30;;;3.17;;
78820;SDS011;68171;13.882;99.692;2023-06-22T04:08:35;7.00;;;2.55;;
78820;SDS011;68171;13.882;99.692;2023-06-22T04:09:42;14.05;;;3.10;;
78820;SDS011;68171;13.882;99.692;2023-06-22T04:10:47;6.93;;;2.30;;
78820;SDS011;68171;13.882;99.692;2023-06-22T04:11:53;7.27;;;2.40;;
78820;SDS011;68171;13.882;99.692;2023-06-22T04:12:58;7.23;;;2.37;;
78820;SDS011;68171;13.882;99.692;2023-06-22T04:14:04;10.07;;;2.58;;
78820;SDS011;68171;13.882;99.692;2023-06-22T04:15:10;7.45;;;2.40;;
78820;SDS011;68171;13.882;99.692;2023-06-22T04:16:16;6.85;;;2.63;;
78820;SDS011;68171;13.882;99.692;2023-06-22T04:17:21;5.70;;;2.60;;
78820;SDS011;68171;13.882;99.692;2023-06-22T04:18:30;8.85;;;2.55;;
78820;SDS011;68171;13.882;99.692;2023-06-22T04:19:34;8.27;;;2.60;;
78820;SDS011;68171;13.882;99.692;2023-06-22T04:20:41;11.18;;;2.80;;
78820;SDS011;68171;13.882;99.692;2023-06-22T04:21:49;8.85;;;2.92;;
78820;SDS011;68171;13.882;99.692;2023-06-22T04:22:55;8.00;;;2.90;;
78820;SDS011;68171;13.882;99.692;2023-06-22T04:24:01;7.00;;;2.37;;
78820;SDS011;68171;13.882;99.692;2023-06-22T04:25:07;7.35;;;2.50;;
78820;SDS011;68171;13.882;99.692;2023-06-22T04:26:12;9.25;;;2.95;;
78820;SDS011;68171;13.882;99.692;2023-06-22T04:27:19;6.00;;;2.35;;
78820;SDS011;68171;13.882;99.692;2023-06-22T04:28:25;10.48;;;2.50;;
78820;SDS011;68171;13.882;99.692;2023-06-22T04:29:32;6.35;;;2.35;;
78820;SDS011;68171;13.882;99.692;2023-06-22T04:30:38;7.75;;;2.50;;
78820;SDS011;68171;13.882;99.692;2023-06-22T04:31:49;7.72;;;2.45;;
78820;SDS011;68171;13.882;99.692;2023-06-22T04:32:56;8.98;;;2.42;;
78820;SDS011;68171;13.882;99.692;2023-06-22T04:34:03;7.93;;;2.70;;
78820;SDS011;68171;13.882;99.692;2023-06-22T04:35:11;8.23;;;2.67;;
78820;SDS011;68171;13.882;99.692;2023-06-22T04:36:17;6.57;;;2.70;;
78820;SDS011;68171;13.882;99.692;2023-06-22T04:37:26;8.50;;;2.38;;
78820;SDS011;68171;13.882;99.692;2023-06-22T04:38:32;8.40;;;2.67;;
78820;SDS011;68171;13.882;99.692;2023-06-22T04:39:38;8.38;;;2.50;;
78820;SDS011;68171;13.882;99.692;2023-06-22T04:40:43;9.27;;;3.13;;
78820;SDS011;68171;13.882;99.692;2023-06-22T04:41:49;8.60;;;3.10;;
78820;SDS011;68171;13.882;99.692;2023-06-22T04:42:55;7.97;;;2.50;;
78820;SDS011;68171;13.882;99.692;2023-06-22T04:44:01;7.30;;;2.75;;
78820;SDS011;68171;13.882;99.692;2023-06-22T04:45:08;6.47;;;2.70;;
78820;SDS011;68171;13.882;99.692;2023-06-22T04:46:16;7.63;;;2.60;;
78820;SDS011;68171;13.882;99.692;2023-06-22T04:47:22;5.75;;;2.10;;
78820;SDS011;68171;13.882;99.692;2023-06-22T04:48:28;8.13;;;2.40;;
78820;SDS011;68171;13.882;99.692;2023-06-22T04:49:37;7.32;;;2.65;;
78820;SDS011;68171;13.882;99.692;2023-06-22T04:50:46;7.10;;;2.30;;
78820;SDS011;68171;13.882;99.692;2023-06-22T04:51:51;8.90;;;2.50;;
78820;SDS011;68171;13.882;99.692;2023-06-22T04:52:58;6.40;;;2.70;;
78820;SDS011;68171;13.882;99.692;2023-06-22T04:54:03;8.82;;;3.08;;
78820;SDS011;68171;13.882;99.692;2023-06-22T04:55:09;9.25;;;2.55;;
78820;SDS011;68171;13.882;99.692;2023-06-22T04:56:16;5.17;;;2.23;;
78820;SDS011;68171;13.882;99.692;2023-06-22T04:57:22;6.03;;;2.30;;
78820;SDS011;68171;13.882;99.692;2023-06-22T04:58:34;5.47;;;1.83;;
78820;SDS011;68171;13.882;99.692;2023-06-22T04:59:39;6.65;;;2.30;;
78820;SDS011;68171;13.882;99.692;2023-06-22T05:00:45;8.95;;;2.35;;
78820;SDS011;68171;13.882;99.692;2023-06-22T05:01:52;8.68;;;2.60;;
78820;SDS011;68171;13.882;99.692;2023-06-22T05:02:57;9.95;;;2.60;;
78820;SDS011;68171;13.882;99.692;2023-06-22T05:04:21;7.03;;;2.58;;
78820;SDS011;68171;13.882;99.692;2023-06-22T05:05:30;7.93;;;2.50;;
78820;SDS011;68171;13.882;99.692;2023-06-22T05:06:35;6.18;;;2.30;;
78820;SDS011;68171;13.882;99.692;2023-06-22T05:07:42;10.23;;;2.60;;
78820;SDS011;68171;13.882;99.692;2023-06-22T05:08:48;6.70;;;2.40;;
78820;SDS011;68171;13.882;99.692;2023-06-22T05:09:54;8.02;;;2.28;;
78820;SDS011;68171;13.882;99.692;2023-06-22T05:11:00;9.45;;;2.33;;
78820;SDS011;68171;13.882;99.692;2023-06-22T05:12:07;5.30;;;2.25;;
78820;SDS011;68171;13.882;99.692;2023-06-22T05:13:13;7.15;;;2.30;;
78820;SDS011;68171;13.882;99.692;2023-06-22T05:14:19;6.63;;;2.40;;
78820;SDS011;68171;13.882;99.692;2023-06-22T05:15:24;6.60;;;2.30;;
78820;SDS011;68171;13.882;99.692;2023-06-22T05:16:33;6.55;;;2.67;;
78820;SDS011;68171;13.882;99.692;2023-06-22T05:17:38;8.82;;;2.40;;
78820;SDS011;68171;13.882;99.692;2023-06-22T05:18:45;7.50;;;2.27;;
78820;SDS011;68171;13.882;99.692;2023-06-22T05:19:51;6.07;;;2.13;;
78820;SDS011;68171;13.882;99.692;2023-06-22T05:21:00;6.57;;;2.28;;
78820;SDS011;68171;13.882;99.692;2023-06-22T05:22:04;5.60;;;2.20;;
78820;SDS011;68171;13.882;99.692;2023-06-22T05:23:10;9.25;;;2.53;;
78820;SDS011;68171;13.882;99.692;2023-06-22T05:24:15;6.10;;;2.45;;
78820;SDS011;68171;13.882;99.692;2023-06-22T05:25:22;6.93;;;2.38;;
78820;SDS011;68171;13.882;99.692;2023-06-22T05:26:26;7.32;;;2.40;;
78820;SDS011;68171;13.882;99.692;2023-06-22T05:27:33;5.97;;;2.30;;
78820;SDS011;68171;13.882;99.692;2023-06-22T05:28:42;6.75;;;2.40;;
78820;SDS011;68171;13.882;99.692;2023-06-22T05:29:49;6.87;;;2.30;;
78820;SDS011;68171;13.882;99.692;2023-06-22T05:30:54;11.63;;;6.30;;
78820;SDS011;68171;13.882;99.692;2023-06-22T05:32:01;9.15;;;4.28;;
78820;SDS011;68171;13.882;99.692;2023-06-22T05:33:06;8.00;;;2.33;;
78820;SDS011;68171;13.882;99.692;2023-06-22T05:34:12;11.63;;;5.90;;
78820;SDS011;68171;13.882;99.692;2023-06-22T05:35:18;9.95;;;4.40;;
78820;SDS011;68171;13.882;99.692;2023-06-22T05:36:26;9.63;;;3.97;;
78820;SDS011;68171;13.882;99.692;2023-06-22T05:37:31;6.65;;;3.08;;
78820;SDS011;68171;13.882;99.692;2023-06-22T05:38:38;7.18;;;2.42;;
78820;SDS011;68171;13.882;99.692;2023-06-22T05:39:44;7.32;;;2.55;;
78820;SDS011;68171;13.882;99.692;2023-06-22T05:40:50;11.57;;;3.20;;
78820;SDS011;68171;13.882;99.692;2023-06-22T05:41:55;6.50;;;2.27;;
78820;SDS011;68171;13.882;99.692;2023-06-22T05:43:01;6.00;;;2.10;;
78820;SDS011;68171;13.882;99.692;2023-06-22T05:44:06;5.22;;;2.17;;
78820;SDS011;68171;13.882;99.692;2023-06-22T05:45:12;5.78;;;2.38;;
78820;SDS011;68171;13.882;99.692;2023-06-22T05:46:19;8.27;;;2.40;;
78820;SDS011;68171;13.882;99.692;2023-06-22T05:47:25;8.57;;;2.35;;
78820;SDS011;68171;13.882;99.692;2023-06-22T05:48:30;7.53;;;2.40;;
78820;SDS011;68171;13.882;99.692;2023-06-22T05:49:36;7.03;;;2.40;;
78820;SDS011;68171;13.882;99.692;2023-06-22T05:50:41;7.18;;;2.00;;
78820;SDS011;68171;13.882;99.692;2023-06-22T05:51:50;6.73;;;2.20;;
78820;SDS011;68171;13.882;99.692;2023-06-22T05:52:54;5.33;;;1.93;;
78820;SDS011;68171;13.882;99.692;2023-06-22T05:54:01;6.18;;;2.20;;
78820;SDS011;68171;13.882;99.692;2023-06-22T05:55:06;6.03;;;2.38;;
78820;SDS011;68171;13.882;99.692;2023-06-22T05:56:12;7.60;;;2.20;;
78820;SDS011;68171;13.882;99.692;2023-06-22T05:57:18;8.40;;;2.47;;
78820;SDS011;68171;13.882;99.692;2023-06-22T05:58:25;7.35;;;2.30;;
78820;SDS011;68171;13.882;99.692;2023-06-22T05:59:30;7.60;;;2.85;;
78820;SDS011;68171;13.882;99.692;2023-06-22T06:00:36;5.22;;;2.30;;
78820;SDS011;68171;13.882;99.692;2023-06-22T06:01:41;7.45;;;2.33;;
78820;SDS011;68171;13.882;99.692;2023-06-22T06:02:47;9.27;;;2.40;;
78820;SDS011;68171;13.882;99.692;2023-06-22T06:03:52;10.07;;;2.57;;
78820;SDS011;68171;13.882;99.692;2023-06-22T06:04:58;6.07;;;2.60;;
78820;SDS011;68171;13.882;99.692;2023-06-22T06:06:05;6.88;;;2.83;;
78820;SDS011;68171;13.882;99.692;2023-06-22T06:07:13;8.48;;;2.40;;
78820;SDS011;68171;13.882;99.692;2023-06-22T06:08:18;6.88;;;2.03;;
78820;SDS011;68171;13.882;99.692;2023-06-22T06:09:25;5.55;;;2.13;;
78820;SDS011;68171;13.882;99.692;2023-06-22T06:10:30;5.85;;;2.10;;
78820;SDS011;68171;13.882;99.692;2023-06-22T06:11:36;6.20;;;2.08;;
78820;SDS011;68171;13.882;99.692;2023-06-22T06:12:43;6.15;;;2.00;;
78820;SDS011;68171;13.882;99.692;2023-06-22T06:13:48;8.60;;;2.57;;
78820;SDS011;68171;13.882;99.692;2023-06-22T06:14:54;6.53;;;2.10;;
78820;SDS011;68171;13.882;99.692;2023-06-22T06:15:59;6.45;;;2.20;;
78820;SDS011;68171;13.882;99.692;2023-06-22T06:17:06;8.50;;;2.22;;
78820;SDS011;68171;13.882;99.692;2023-06-22T06:18:11;6.07;;;2.40;;
78820;SDS011;68171;13.882;99.692;2023-06-22T06:19:17;5.47;;;1.80;;
78820;SDS011;68171;13.882;99.692;2023-06-22T06:20:22;9.05;;;2.25;;
78820;SDS011;68171;13.882;99.692;2023-06-22T06:21:31;10.60;;;2.03;;
78820;SDS011;68171;13.882;99.692;2023-06-22T06:22:39;4.90;;;1.90;;
78820;SDS011;68171;13.882;99.692;2023-06-22T06:23:45;6.22;;;2.05;;
78820;SDS011;68171;13.882;99.692;2023-06-22T06:24:52;7.07;;;1.90;;
78820;SDS011;68171;13.882;99.692;2023-06-22T06:25:57;5.53;;;1.90;;
78820;SDS011;68171;13.882;99.692;2023-06-22T06:27:04;7.82;;;2.22;;
78820;SDS011;68171;13.882;99.692;2023-06-22T06:28:09;7.43;;;2.08;;
78820;SDS011;68171;13.882;99.692;2023-06-22T06:29:15;6.50;;;1.90;;
78820;SDS011;68171;13.882;99.692;2023-06-22T06:30:22;6.93;;;1.95;;
78820;SDS011;68171;13.882;99.692;2023-06-22T06:31:27;6.85;;;2.20;;
78820;SDS011;68171;13.882;99.692;2023-06-22T06:32:33;6.53;;;1.95;;
78820;SDS011;68171;13.882;99.692;2023-06-22T06:33:38;5.10;;;2.05;;
78820;SDS011;68171;13.882;99.692;2023-06-22T06:34:45;4.93;;;1.92;;